createdAt,value
2019-05-18T00:00:23.538Z,99651.15
2019-05-18T00:02:56.942Z,99653.16
2019-05-18T00:05:30.338Z,99650.18
2019-05-18T00:08:03.741Z,99650.30
2019-05-18T00:10:37.136Z,99651.15
2019-05-18T00:13:10.548Z,99654.48
2019-05-18T00:15:43.974Z,99661.28
2019-05-18T00:18:17.370Z,99661.12
2019-05-18T00:20:50.762Z,99657.98
2019-05-18T00:23:24.165Z,99660.55
2019-05-18T00:25:57.626Z,99649.73
2019-05-18T00:28:31.044Z,99655.58
2019-05-18T00:31:04.428Z,99662.09
2019-05-18T00:33:37.879Z,99659.69
2019-05-18T00:36:11.274Z,99657.50
2019-05-18T00:38:44.706Z,99659.39
2019-05-18T00:41:18.104Z,99656.38
2019-05-18T00:43:51.520Z,99661.09
2019-05-18T00:46:24.916Z,99656.95
2019-05-18T00:48:58.302Z,99659.80
2019-05-18T00:51:31.697Z,99657.67
2019-05-18T00:54:05.250Z,99663.02
2019-05-18T00:56:38.642Z,99656.36
2019-05-18T00:59:15.974Z,99660.00
2019-05-18T01:01:47.153Z,99656.70
2019-05-18T01:04:20.579Z,99661.54
2019-05-18T01:06:53.962Z,99668.98
2019-05-18T01:09:27.403Z,99666.64
2019-05-18T01:12:00.875Z,99669.86
2019-05-18T01:14:34.284Z,99672.71
2019-05-18T01:17:07.762Z,99676.38
2019-05-18T01:19:41.148Z,99672.71
2019-05-18T01:22:14.611Z,99665.87
2019-05-18T01:24:48.012Z,99668.31
2019-05-18T01:27:21.387Z,99666.73
2019-05-18T01:29:54.803Z,99666.73
2019-05-18T01:32:28.767Z,99663.86
2019-05-18T01:35:02.263Z,99665.87
2019-05-18T01:37:35.643Z,99653.91
2019-05-18T01:40:09.690Z,99656.68
2019-05-18T01:42:43.086Z,99655.36
2019-05-18T01:45:17.664Z,99656.38
2019-05-18T01:47:51.297Z,99651.91
2019-05-18T01:50:24.719Z,99652.66
2019-05-18T01:52:58.116Z,99647.91
2019-05-18T01:55:31.547Z,99649.60
2019-05-18T01:58:04.996Z,99646.44
2019-05-18T02:00:38.401Z,99645.56
2019-05-18T02:03:11.804Z,99637.18
2019-05-18T02:05:45.209Z,99638.37
2019-05-18T02:08:18.590Z,99634.92
2019-05-18T02:10:51.996Z,99634.02
2019-05-18T02:13:25.400Z,99636.96
2019-05-18T02:15:58.815Z,99636.67
2019-05-18T02:18:32.215Z,99641.12
2019-05-18T02:21:05.722Z,99632.08
2019-05-18T02:23:39.135Z,99631.72
2019-05-18T02:26:12.537Z,99621.27
2019-05-18T02:28:46.017Z,99623.62
2019-05-18T02:31:19.391Z,99619.39
2019-05-18T02:33:52.854Z,99619.51
2019-05-18T02:36:26.289Z,99618.08
2019-05-18T02:38:59.755Z,99611.15
2019-05-18T02:41:33.177Z,99613.84
2019-05-18T02:44:06.902Z,99616.73
2019-05-18T02:46:40.320Z,99618.20
2019-05-18T02:49:13.750Z,99611.78
2019-05-18T02:51:47.171Z,99614.77
2019-05-18T02:54:20.542Z,99614.77
2019-05-18T02:56:53.961Z,99617.19
2019-05-18T02:59:27.382Z,99618.77
2019-05-18T03:02:00.770Z,99615.58
2019-05-18T03:04:34.180Z,99620.11
2019-05-18T03:07:07.665Z,99628.92
2019-05-18T03:09:41.347Z,99629.00
2019-05-18T03:12:14.747Z,99633.06
2019-05-18T03:14:48.705Z,99638.03
2019-05-18T03:17:22.098Z,99637.05
2019-05-18T03:19:55.525Z,99636.52
2019-05-18T03:22:28.973Z,99633.78
2019-05-18T03:25:02.662Z,99630.48
2019-05-18T03:27:36.045Z,99626.34
2019-05-18T03:30:10.136Z,99626.48
2019-05-18T03:32:43.486Z,99621.47
2019-05-18T03:35:16.981Z,99622.18
2019-05-18T03:37:50.377Z,99623.05
2019-05-18T03:40:23.796Z,99621.83
2019-05-18T03:42:57.174Z,99626.81
2019-05-18T03:45:30.598Z,99632.87
2019-05-18T03:48:04.000Z,99633.00
2019-05-18T03:50:37.412Z,99632.00
2019-05-18T03:53:10.792Z,99634.99
2019-05-18T03:55:44.208Z,99632.28
2019-05-18T03:58:17.609Z,99634.85
2019-05-18T04:00:51.046Z,99634.94
2019-05-18T04:03:24.424Z,99635.48
2019-05-18T04:05:57.865Z,99639.87
2019-05-18T04:08:31.241Z,99644.98
2019-05-18T04:11:04.729Z,99641.84
2019-05-18T04:13:38.109Z,99640.64
2019-05-18T04:16:11.529Z,99644.00
2019-05-18T04:18:44.990Z,99643.27
2019-05-18T04:21:18.367Z,99641.83
2019-05-18T04:23:51.745Z,99636.85
2019-05-18T04:26:25.163Z,99643.11
2019-05-18T04:28:58.557Z,99646.79
2019-05-18T04:31:32.644Z,99646.15
2019-05-18T04:34:06.236Z,99647.27
2019-05-18T04:36:39.653Z,99646.67
2019-05-18T04:39:13.036Z,99649.77
2019-05-18T04:41:46.435Z,99655.23
2019-05-18T04:44:19.813Z,99650.67
2019-05-18T04:46:53.221Z,99660.44
2019-05-18T04:49:26.624Z,99656.80
2019-05-18T04:52:00.025Z,99656.08
2019-05-18T04:54:33.409Z,99657.52
2019-05-18T04:57:06.858Z,99662.47
2019-05-18T04:59:40.210Z,99664.38
2019-05-18T05:02:13.621Z,99665.13
2019-05-18T05:04:46.994Z,99669.06
2019-05-18T05:07:20.474Z,99669.42
2019-05-18T05:09:53.902Z,99674.38
2019-05-18T05:12:27.248Z,99674.05
2019-05-18T05:15:00.654Z,99680.89
2019-05-18T05:17:34.074Z,99678.91
2019-05-18T05:20:19.155Z,99677.05
2019-05-18T05:22:42.841Z,99673.10
2019-05-18T05:25:16.234Z,99672.42
2019-05-18T05:27:49.654Z,99668.20
2019-05-18T05:30:23.035Z,99669.05
2019-05-18T05:32:56.514Z,99665.64
2019-05-18T05:35:29.984Z,99676.10
2019-05-18T05:38:03.496Z,99667.12
2019-05-18T05:40:36.938Z,99671.84
2019-05-18T05:43:10.360Z,99676.83
2019-05-18T05:45:43.765Z,99667.80
2019-05-18T05:48:17.313Z,99674.08
2019-05-18T05:50:50.651Z,99672.60
2019-05-18T05:53:24.054Z,99672.84
2019-05-18T05:55:57.456Z,99675.89
2019-05-18T05:58:30.869Z,99672.13
2019-05-18T06:01:04.284Z,99675.18
2019-05-18T06:03:37.694Z,99678.09
2019-05-18T06:06:11.087Z,99675.23
2019-05-18T06:08:44.557Z,99677.75
2019-05-18T06:11:18.027Z,99684.09
2019-05-18T06:13:51.479Z,99685.03
2019-05-18T06:16:24.859Z,99689.23
2019-05-18T06:18:58.268Z,99688.98
2019-05-18T06:21:32.141Z,99685.88
2019-05-18T06:24:05.701Z,99688.81
2019-05-18T06:26:39.101Z,99697.13
2019-05-18T06:29:12.527Z,99697.02
2019-05-18T06:31:45.936Z,99688.45
2019-05-18T06:34:19.344Z,99688.45
2019-05-18T06:36:55.836Z,99685.81
2019-05-18T06:39:28.281Z,99668.94
2019-05-18T06:42:01.686Z,99664.42
2019-05-18T06:44:35.077Z,99677.12
2019-05-18T06:47:08.473Z,99678.30
2019-05-18T06:49:41.897Z,99664.31
2019-05-18T06:52:15.297Z,99671.72
2019-05-18T06:54:48.787Z,99668.45
2019-05-18T06:57:25.043Z,99659.38
2019-05-18T06:59:59.415Z,99668.48
2019-05-18T07:02:32.822Z,99664.44
2019-05-18T07:05:07.218Z,99663.94
2019-05-18T07:07:40.945Z,99670.08
2019-05-18T07:10:14.461Z,99671.48
2019-05-18T07:12:47.856Z,99670.64
2019-05-18T07:15:21.553Z,99667.95
2019-05-18T07:17:54.969Z,99669.65
2019-05-18T07:20:28.403Z,99675.67
2019-05-18T07:23:01.788Z,99679.38
2019-05-18T07:25:35.207Z,99673.98
2019-05-18T07:28:08.717Z,99676.36
2019-05-18T07:30:42.118Z,99678.54
2019-05-18T07:33:15.544Z,99675.18
2019-05-18T07:35:48.979Z,99673.95
2019-05-18T07:38:22.372Z,99676.16
2019-05-18T07:40:55.873Z,99676.94
2019-05-18T07:43:29.284Z,99681.74
2019-05-18T07:46:02.713Z,99671.16
2019-05-18T07:48:36.900Z,99679.96
2019-05-18T07:51:10.515Z,99678.09
2019-05-18T07:53:44.286Z,99684.47
2019-05-18T07:56:18.006Z,99681.83
2019-05-18T07:58:51.525Z,99690.88
2019-05-18T08:01:24.924Z,99694.31
2019-05-18T08:03:58.334Z,99697.91
2019-05-18T08:06:31.724Z,99695.22
2019-05-18T08:09:07.423Z,99694.84
2019-05-18T08:11:40.766Z,99690.13
2019-05-18T08:14:14.211Z,99685.84
2019-05-18T08:16:47.603Z,99688.47
2019-05-18T08:19:21.047Z,99678.23
2019-05-18T08:21:54.462Z,99686.46
2019-05-18T08:24:28.667Z,99686.39
2019-05-18T08:27:02.544Z,99690.28
2019-05-18T08:29:36.119Z,99688.75
2019-05-18T08:32:09.515Z,99688.95
2019-05-18T08:34:43.047Z,99681.79
2019-05-18T08:37:16.500Z,99678.26
2019-05-18T08:39:49.947Z,99684.50
2019-05-18T08:42:23.356Z,99678.08
2019-05-18T08:44:56.762Z,99679.07
2019-05-18T08:47:30.148Z,99676.27
2019-05-18T08:50:05.417Z,99672.13
2019-05-18T08:52:38.809Z,99673.14
2019-05-18T08:55:12.352Z,99672.02
2019-05-18T08:57:45.734Z,99669.22
2019-05-18T09:00:19.418Z,99673.64
2019-05-18T09:02:52.817Z,99669.47
2019-05-18T09:05:26.226Z,99676.20
2019-05-18T09:07:59.643Z,99672.98
2019-05-18T09:10:33.147Z,99668.58
2019-05-18T09:13:06.694Z,99667.80
2019-05-18T09:15:40.130Z,99676.56
2019-05-18T09:18:13.554Z,99672.83
2019-05-18T09:20:46.963Z,99668.70
2019-05-18T09:23:20.358Z,99664.16
2019-05-18T09:25:53.842Z,99666.31
2019-05-18T09:28:27.320Z,99661.28
2019-05-18T09:31:00.790Z,99665.00
2019-05-18T09:33:34.179Z,99660.38
2019-05-18T09:36:07.654Z,99658.64
2019-05-18T09:38:41.047Z,99656.89
2019-05-18T09:41:14.528Z,99656.72
2019-05-18T09:43:47.912Z,99654.27
2019-05-18T09:46:21.308Z,99657.83
2019-05-18T09:48:54.695Z,99659.27
2019-05-18T09:51:28.139Z,99655.81
2019-05-18T09:54:01.614Z,99654.06
2019-05-18T09:56:35.016Z,99648.00
2019-05-18T09:59:08.507Z,99645.01
2019-05-18T10:01:41.928Z,99646.86
2019-05-18T10:04:15.322Z,99644.88
2019-05-18T10:06:48.733Z,99640.98
2019-05-18T10:09:22.139Z,99641.48
2019-05-18T10:11:55.571Z,99635.63
2019-05-18T10:14:28.963Z,99631.89
2019-05-18T10:17:02.489Z,99623.48
2019-05-18T10:19:35.924Z,99625.23
2019-05-18T10:22:09.399Z,99618.00
2019-05-18T10:24:42.730Z,99615.56
2019-05-18T10:27:16.217Z,99617.09
2019-05-18T10:29:49.622Z,99612.48
2019-05-18T10:32:23.152Z,99615.30
2019-05-18T10:34:56.526Z,99603.98
2019-05-18T10:37:30.327Z,99602.30
2019-05-18T10:40:07.588Z,99603.64
2019-05-18T10:42:41.068Z,99601.41
2019-05-18T10:45:14.805Z,99606.05
2019-05-18T10:47:48.215Z,99597.06
2019-05-18T10:50:21.608Z,99595.58
2019-05-18T10:52:55.026Z,99591.28
2019-05-18T10:55:28.458Z,99590.64
2019-05-18T10:58:01.856Z,99571.36
2019-05-18T11:00:35.332Z,99582.06
2019-05-18T11:03:08.742Z,99575.78
2019-05-18T11:05:42.139Z,99572.44
2019-05-18T11:08:15.617Z,99570.98
2019-05-18T11:10:49.050Z,99563.10
2019-05-18T11:13:22.458Z,99568.45
2019-05-18T11:15:55.843Z,99563.38
2019-05-18T11:18:30.376Z,99565.42
2019-05-18T11:21:04.017Z,99560.52
2019-05-18T11:23:43.713Z,99555.83
2019-05-18T11:26:12.666Z,99547.76
2019-05-18T11:28:46.131Z,99549.09
2019-05-18T11:31:19.533Z,99555.72
2019-05-18T11:33:52.943Z,99544.25
2019-05-18T11:36:26.410Z,99547.59
2019-05-18T11:38:59.829Z,99544.88
2019-05-18T11:41:33.240Z,99537.64
2019-05-18T11:44:07.089Z,99541.02
2019-05-18T11:46:40.564Z,99543.33
2019-05-18T11:49:14.006Z,99546.22
2019-05-18T11:51:47.468Z,99538.84
2019-05-18T11:54:20.981Z,99544.05
2019-05-18T11:56:54.404Z,99540.41
2019-05-18T11:59:27.790Z,99531.16
2019-05-18T12:02:01.194Z,99532.28
2019-05-18T12:04:34.602Z,99537.98
2019-05-18T12:07:08.082Z,99534.45
2019-05-18T12:09:41.449Z,99535.44
2019-05-18T12:12:14.870Z,99536.59
2019-05-18T12:14:48.272Z,99541.86
2019-05-18T12:17:21.662Z,99538.81
2019-05-18T12:19:55.070Z,99540.16
2019-05-18T12:22:28.458Z,99543.75
2019-05-18T12:25:01.867Z,99536.58
2019-05-18T12:27:35.258Z,99541.30
2019-05-18T12:30:13.846Z,99559.47
2019-05-18T12:32:47.279Z,99556.78
2019-05-18T12:35:21.798Z,99567.04
2019-05-18T12:37:55.241Z,99565.50
2019-05-18T12:40:28.738Z,99573.67
2019-05-18T12:43:02.128Z,99580.21
2019-05-18T12:45:35.640Z,99596.59
2019-05-18T12:48:09.208Z,99592.75
2019-05-18T12:50:42.700Z,99593.57
2019-05-18T12:53:17.794Z,99587.69
2019-05-18T12:55:51.298Z,99585.18
2019-05-18T12:58:24.699Z,99585.76
2019-05-18T13:00:58.102Z,99582.37
2019-05-18T13:03:31.496Z,99581.05
2019-05-18T13:06:06.347Z,99587.30
2019-05-18T13:08:39.838Z,99589.20
2019-05-18T13:11:13.288Z,99585.78
2019-05-18T13:13:46.723Z,99580.34
2019-05-18T13:16:20.185Z,99581.26
2019-05-18T13:18:53.598Z,99569.89
2019-05-18T13:21:27.026Z,99572.38
2019-05-18T13:24:00.459Z,99567.25
2019-05-18T13:26:33.958Z,99568.27
2019-05-18T13:29:07.377Z,99557.34
2019-05-18T13:31:40.785Z,99550.41
2019-05-18T13:34:14.247Z,99552.39
2019-05-18T13:36:47.666Z,99544.25
2019-05-18T13:39:21.069Z,99545.02
2019-05-18T13:41:54.490Z,99534.20
2019-05-18T13:44:27.896Z,99535.32
2019-05-18T13:47:01.318Z,99537.36
2019-05-18T13:49:34.821Z,99552.61
2019-05-18T13:52:08.307Z,99555.11
2019-05-18T13:54:41.742Z,99548.38
2019-05-18T13:57:15.136Z,99536.33
2019-05-18T13:59:48.653Z,99530.52
2019-05-18T14:02:22.036Z,99515.66
2019-05-18T14:04:55.453Z,99517.81
2019-05-18T14:07:28.850Z,99514.28
2019-05-18T14:10:02.249Z,99505.56
2019-05-18T14:12:35.716Z,99503.21
2019-05-18T14:15:10.193Z,99494.72
2019-05-18T14:17:43.604Z,99502.73
2019-05-18T14:20:19.079Z,99499.63
2019-05-18T14:22:52.491Z,99491.80
2019-05-18T14:25:25.941Z,99491.86
2019-05-18T14:27:59.329Z,99490.20
2019-05-18T14:30:32.836Z,99481.28
2019-05-18T14:33:06.311Z,99480.02
2019-05-18T14:35:39.730Z,99482.33
2019-05-18T14:38:13.207Z,99483.00
2019-05-18T14:40:46.594Z,99494.28
2019-05-18T14:43:20.066Z,99488.06
2019-05-18T14:45:53.553Z,99489.05
2019-05-18T14:48:26.939Z,99490.02
2019-05-18T14:51:00.361Z,99489.75
2019-05-18T14:53:33.779Z,99483.69
2019-05-18T14:56:07.402Z,99477.28
2019-05-18T14:58:40.818Z,99476.85
2019-05-18T15:01:14.214Z,99470.25
2019-05-18T15:03:48.022Z,99459.37
2019-05-18T15:06:21.509Z,99461.52
2019-05-18T15:08:54.936Z,99456.22
2019-05-18T15:11:28.381Z,99471.23
2019-05-18T15:14:01.806Z,99474.59
2019-05-18T15:16:35.302Z,99479.98
2019-05-18T15:19:08.764Z,99466.67
2019-05-18T15:21:42.329Z,99474.34
2019-05-18T15:24:17.501Z,99475.48
2019-05-18T15:26:50.998Z,99478.85
2019-05-18T15:29:24.405Z,99475.52
2019-05-18T15:31:57.893Z,99479.27
2019-05-18T15:34:31.287Z,99491.72
2019-05-18T15:37:04.717Z,99490.33
2019-05-18T15:39:38.114Z,99490.89
2019-05-18T15:42:11.534Z,99488.36
2019-05-18T15:44:44.907Z,99482.47
2019-05-18T15:47:18.400Z,99469.48
2019-05-18T15:49:51.811Z,99466.04
2019-05-18T15:52:25.229Z,99462.39
2019-05-18T15:54:58.643Z,99465.23
2019-05-18T15:57:32.131Z,99463.08
2019-05-18T16:00:08.180Z,99458.88
2019-05-18T16:02:41.679Z,99452.34
2019-05-18T16:05:15.406Z,99457.34
2019-05-18T16:07:48.806Z,99451.18
2019-05-18T16:10:22.423Z,99442.70
2019-05-18T16:12:55.835Z,99440.52
2019-05-18T16:15:29.294Z,99439.42
2019-05-18T16:18:02.768Z,99428.09
2019-05-18T16:20:36.153Z,99424.51
2019-05-18T16:23:09.569Z,99438.14
2019-05-18T16:25:43.212Z,99429.99
2019-05-18T16:28:16.713Z,99440.23
2019-05-18T16:30:50.181Z,99456.14
2019-05-18T16:33:23.642Z,99459.16
2019-05-18T16:35:57.037Z,99459.42
2019-05-18T16:38:30.452Z,99462.93
2019-05-18T16:41:03.910Z,99465.61
2019-05-18T16:43:37.333Z,99481.56
2019-05-18T16:46:10.740Z,99486.06
2019-05-18T16:48:44.214Z,99492.53
2019-05-18T16:51:17.607Z,99496.23
2019-05-18T16:53:51.397Z,99493.01
2019-05-18T16:56:34.815Z,99504.98
2019-05-18T16:59:00.672Z,99505.29
2019-05-18T17:01:34.211Z,99506.02
2019-05-18T17:04:07.648Z,99506.57
2019-05-18T17:06:41.045Z,99514.66
2019-05-18T17:09:14.533Z,99507.59
2019-05-18T17:11:48.287Z,99513.47
2019-05-18T17:14:21.726Z,99503.00
2019-05-18T17:16:55.119Z,99511.11
2019-05-18T17:19:28.552Z,99512.24
2019-05-18T17:22:01.955Z,99512.38
2019-05-18T17:24:35.366Z,99522.17
2019-05-18T17:27:08.758Z,99525.41
2019-05-18T17:29:42.197Z,99528.68
2019-05-18T17:32:15.597Z,99531.16
2019-05-18T17:34:49.018Z,99526.05
2019-05-18T17:37:22.437Z,99529.92
2019-05-18T17:39:55.855Z,99536.84
2019-05-18T17:42:29.270Z,99536.45
2019-05-18T17:45:02.670Z,99549.73
2019-05-18T17:47:36.125Z,99557.67
2019-05-18T17:50:10.186Z,99568.75
2019-05-18T17:52:43.689Z,99572.03
2019-05-18T17:55:17.349Z,99576.25
2019-05-18T17:57:50.760Z,99585.43
2019-05-18T18:00:24.322Z,99585.43
2019-05-18T18:02:57.753Z,99608.80
2019-05-18T18:05:31.181Z,99607.53
2019-05-18T18:08:04.639Z,99616.91
2019-05-18T18:10:38.073Z,99627.30
2019-05-18T18:13:11.473Z,99619.65
2019-05-18T18:15:45.032Z,99619.65
2019-05-18T18:18:18.524Z,99627.78
2019-05-18T18:20:52.002Z,99640.88
2019-05-18T18:23:25.446Z,99635.42
2019-05-18T18:25:58.908Z,99637.92
2019-05-18T18:28:32.280Z,99638.78
2019-05-18T18:31:05.783Z,99652.47
2019-05-18T18:33:39.217Z,99657.53
2019-05-18T18:36:12.678Z,99665.63
2019-05-18T18:38:46.257Z,99679.28
2019-05-18T18:41:19.696Z,99683.39
2019-05-18T18:43:53.100Z,99687.23
2019-05-18T18:46:26.564Z,99683.39
2019-05-18T18:48:59.981Z,99680.41
2019-05-18T18:51:33.507Z,99690.89
2019-05-18T18:54:06.932Z,99686.48
2019-05-18T18:56:40.411Z,99676.55
2019-05-18T18:59:13.889Z,99678.60
2019-05-18T19:01:47.307Z,99683.02
2019-05-18T19:04:20.707Z,99685.66
2019-05-18T19:06:54.119Z,99673.36
2019-05-18T19:09:27.531Z,99673.48
2019-05-18T19:12:00.970Z,99669.60
2019-05-18T19:14:34.434Z,99678.72
2019-05-18T19:17:07.876Z,99676.41
2019-05-18T19:19:41.268Z,99675.88
2019-05-18T19:22:14.715Z,99676.16
2019-05-18T19:24:48.109Z,99669.28
2019-05-18T19:27:21.534Z,99674.89
2019-05-18T19:29:54.946Z,99671.34
2019-05-18T19:32:28.387Z,99663.59
2019-05-18T19:35:01.800Z,99638.95
2019-05-18T19:37:35.223Z,99631.78
2019-05-18T19:40:10.294Z,99619.58
2019-05-18T19:42:43.743Z,99629.05
2019-05-18T19:45:17.230Z,99636.80
2019-05-18T19:47:50.654Z,99645.91
2019-05-18T19:50:24.047Z,99640.30
2019-05-18T19:52:57.551Z,99638.14
2019-05-18T19:55:30.957Z,99641.82
2019-05-18T19:58:08.756Z,99642.08
2019-05-18T20:00:39.582Z,99644.10
2019-05-18T20:03:13.028Z,99636.39
2019-05-18T20:05:46.411Z,99630.45
2019-05-18T20:08:19.818Z,99635.61
2019-05-18T20:10:53.251Z,99634.77
2019-05-18T20:13:26.651Z,99627.18
2019-05-18T20:16:00.046Z,99629.72
2019-05-18T20:18:33.448Z,99628.25
2019-05-18T20:21:06.892Z,99629.96
2019-05-18T20:23:40.301Z,99626.00
2019-05-18T20:26:13.699Z,99633.88
2019-05-18T20:28:47.144Z,99671.52
2019-05-18T20:31:20.615Z,99706.34
2019-05-18T20:33:54.057Z,99718.54
2019-05-18T20:36:27.481Z,99715.70
2019-05-18T20:39:00.910Z,99707.45
2019-05-18T20:41:34.383Z,99710.96
2019-05-18T20:44:07.906Z,99711.48
2019-05-18T20:46:41.326Z,99718.32
2019-05-18T20:49:14.720Z,99711.54
2019-05-18T20:51:48.209Z,99707.77
2019-05-18T20:54:21.684Z,99709.58
2019-05-18T20:56:55.114Z,99703.81
2019-05-18T20:59:28.523Z,99704.67
2019-05-18T21:02:01.972Z,99705.28
2019-05-18T21:04:35.388Z,99705.25
2019-05-18T21:07:08.888Z,99708.64
2019-05-18T21:09:42.263Z,99709.95
2019-05-18T21:12:15.678Z,99707.77
2019-05-18T21:14:49.085Z,99710.56
2019-05-18T21:17:22.623Z,99709.95
2019-05-18T21:19:56.012Z,99705.06
2019-05-18T21:22:29.427Z,99708.68
2019-05-18T21:25:02.978Z,99712.78
2019-05-18T21:27:36.395Z,99706.91
2019-05-18T21:30:10.064Z,99702.16
2019-05-18T21:32:43.494Z,99708.15
2019-05-18T21:35:16.872Z,99704.19
2019-05-18T21:37:50.290Z,99701.03
2019-05-18T21:40:26.194Z,99703.02
2019-05-18T21:42:58.862Z,99709.02
2019-05-18T21:45:32.353Z,99701.45
2019-05-18T21:48:05.836Z,99700.50
2019-05-18T21:50:39.251Z,99700.20
2019-05-18T21:53:12.688Z,99693.46
2019-05-18T21:55:46.083Z,99689.58
2019-05-18T21:58:19.505Z,99686.80
2019-05-18T22:00:53.030Z,99691.61
2019-05-18T22:03:26.711Z,99686.27
2019-05-18T22:06:00.105Z,99685.55
2019-05-18T22:08:33.516Z,99677.98
2019-05-18T22:11:07.002Z,99682.98
2019-05-18T22:13:40.427Z,99686.27
2019-05-18T22:16:13.851Z,99687.66
2019-05-18T22:18:47.280Z,99686.80
2019-05-18T22:21:20.697Z,99693.27
2019-05-18T22:23:54.123Z,99697.30
2019-05-18T22:26:27.552Z,99697.08
2019-05-18T22:29:00.972Z,99701.52
2019-05-18T22:31:34.403Z,99699.52
2019-05-18T22:34:07.821Z,99695.19
2019-05-18T22:36:41.241Z,99693.00
2019-05-18T22:39:14.669Z,99687.46
2019-05-18T22:41:48.090Z,99682.79
2019-05-18T22:44:21.523Z,99685.77
2019-05-18T22:46:54.939Z,99674.88
2019-05-18T22:49:28.359Z,99670.53
2019-05-18T22:52:01.756Z,99659.80
2019-05-18T22:54:35.156Z,99655.80
2019-05-18T22:57:08.566Z,99662.36
2019-05-18T22:59:41.998Z,99661.82
2019-05-18T23:02:15.393Z,99661.97
2019-05-18T23:04:48.816Z,99658.53
2019-05-18T23:07:22.227Z,99655.83
2019-05-18T23:09:55.632Z,99656.17
2019-05-18T23:12:29.144Z,99638.03
2019-05-18T23:15:02.532Z,99640.63
2019-05-18T23:17:35.912Z,99633.89
2019-05-18T23:20:10.911Z,99629.82
2019-05-18T23:22:44.383Z,99634.83
2019-05-18T23:25:17.903Z,99621.84
2019-05-18T23:27:51.288Z,99619.47
2019-05-18T23:30:25.561Z,99616.76
2019-05-18T23:32:58.993Z,99607.61
2019-05-18T23:35:32.831Z,99606.89
2019-05-18T23:38:06.269Z,99611.22
2019-05-18T23:40:39.684Z,99609.64
2019-05-18T23:43:13.107Z,99612.46
2019-05-18T23:45:46.519Z,99618.37
2019-05-18T23:48:19.929Z,99617.64
2019-05-18T23:50:53.401Z,99619.30
2019-05-18T23:53:26.809Z,99610.08
2019-05-18T23:56:00.267Z,99613.61
2019-05-18T23:58:33.644Z,99612.56
